Piera — 9HA3682 — position and weather

sailwx.info

Track history (hours):
 
Tides and Currents Weather Stations Pressure Air Temp Water Temp Dewpoint Dewpoint Depression Visibility Wind Speed Wind Dir Waves Ship Positions

Piera

Last reported at 2018-Jan-23 03:52 UTC. Time now 2018-Feb-25 22:16 UTC.
Position N 40°34' W 028°56'.
Warning: this ship's position is 33 days out of date.

Length 230 m; draft 7.4 m.

Type: Ship. MMSI: 229872000.

Date/timePositionNaut miles runAvg speedWind from/ knotsBaromVisibWave heightAir tempDewpointWater temp
2018-Jan-23 03:52N 40°34' W 028°56'21 9.0
2018-Jan-23 01:35N 40°29' W 028°30'23 9.5
2018-Jan-22 23:08N 40°23' W 028°01'  
2018-Jan-20 17:36N 37°53' W 016°17'110.9
2018-Jan-20 17:30N 37°52' W 016°16'3010.7
2018-Jan-20 14:44N 37°44' W 015°40'410.9
2018-Jan-20 14:20N 37°42' W 015°34'1210.7
2018-Jan-20 13:14N 37°39' W 015°20'910.8
2018-Jan-20 12:25N 37°37' W 015°09'510.8
2018-Jan-20 12:00N 37°36' W 015°04'611.1
2018-Jan-20 11:30N 37°35' W 014°57'611.0
2018-Jan-20 11:00N 37°33' W 014°50'710.9
2018-Jan-20 10:23N 37°31' W 014°42'411.0
2018-Jan-20 10:00N 37°30' W 014°37'611.0
2018-Jan-20 09:30N 37°29' W 014°30'610.9
2018-Jan-20 08:56N 37°27' W 014°23'510.7
2018-Jan-20 08:28N 37°26' W 014°17'510.5
2018-Jan-20 08:00N 37°24' W 014°11'510.7
2018-Jan-20 07:30N 37°23' W 014°04'510.7
2018-Jan-20 07:00N 37°22' W 013°58'510.5
2018-Jan-20 06:30N 37°21' W 013°51'610.7
2018-Jan-20 05:56N 37°19' W 013°44'510.8
2018-Jan-20 05:30N 37°18' W 013°38'510.6
2018-Jan-20 05:00N 37°16' W 013°32'610.8
2018-Jan-20 04:28N 37°15' W 013°25'510.5
2018-Jan-20 04:00N 37°13' W 013°19'510.6
2018-Jan-20 03:30N 37°12' W 013°13'510.8
2018-Jan-20 03:00N 37°10' W 013°06'510.7
2018-Jan-20 02:30N 37°09' W 012°60'510.6
2018-Jan-20 02:00N 37°08' W 012°53'510.5
2018-Jan-20 01:30N 37°06' W 012°47'510.8
2018-Jan-20 01:00N 37°05' W 012°41'510.8
2018-Jan-20 00:30N 37°03' W 012°34'510.6
2018-Jan-20 00:00N 37°02' W 012°28'510.2
2018-Jan-19 23:30N 37°01' W 012°21'510.3
2018-Jan-19 23:00N 36°59' W 012°15'510.2
2018-Jan-19 22:28N 36°58' W 012°09'610.2
2018-Jan-19 21:55N 36°56' W 012°02'510.3
2018-Jan-19 21:26N 36°55' W 011°56'510.2
2018-Jan-19 20:59N 36°54' W 011°50'610.2
2018-Jan-19 20:25N 36°52' W 011°43'410.2
2018-Jan-19 20:00N 36°51' W 011°38'510.2
2018-Jan-19 19:30N 36°50' W 011°32'510.2
2018-Jan-19 19:00N 36°49' W 011°26'510.4
2018-Jan-19 18:30N 36°48' W 011°20'510.1
2018-Jan-19 18:00N 36°47' W 011°13'510.1
2018-Jan-19 17:30N 36°46' W 011°07'99 9.6
2018-Jan-19 07:07N 36°18' W 009°08'210.0
2018-Jan-19 06:58N 36°18' W 009°06'2210.6
2018-Jan-19 04:51N 36°15' W 008°39'411.0
2018-Jan-19 04:27N 36°14' W 008°34'611.1
2018-Jan-19 03:55N 36°13' W 008°26'511.1
2018-Jan-19 03:27N 36°13' W 008°20'10211.7
2018-Jan-18 18:40N 35°58' W 006°15'311.4
2018-Jan-18 18:23N 35°58' W 006°11'810.9
2018-Jan-18 17:39N 35°58' W 006°01'311.1
2018-Jan-18 17:25N 35°58' W 005°58'511.2
2018-Jan-18 17:00N 35°57' W 005°52'611.4
2018-Jan-18 16:30N 35°57' W 005°45'611.9
2018-Jan-18 16:00N 35°57' W 005°38'611.5
2018-Jan-18 15:31N 35°59' W 005°31'510.4
2018-Jan-18 15:01N 36°02' W 005°25'510.3
2018-Jan-18 14:30N 36°06' W 005°23'1 1.8
2018-Jan-18 13:58N 36°07' W 005°22'0 0.1
2018-Jan-18 13:28N 36°07' W 005°22'0 0.0
2018-Jan-18 12:58N 36°07' W 005°22'0 0.1
2018-Jan-18 12:28N 36°07' W 005°22'0 0.2
2018-Jan-18 11:58N 36°07' W 005°22'0 0.0
2018-Jan-18 11:28N 36°07' W 005°22'0 0.2
2018-Jan-18 10:58N 36°07' W 005°22'0 0.0
2018-Jan-18 10:28N 36°07' W 005°22'0 0.1
2018-Jan-18 09:58N 36°07' W 005°22'0 0.1
2018-Jan-18 09:28N 36°07' W 005°22'0 0.0
2018-Jan-18 08:58N 36°07' W 005°22'0 0.0
2018-Jan-18 08:28N 36°07' W 005°22'0 0.0
2018-Jan-18 07:58N 36°07' W 005°22'0 0.1
2018-Jan-18 07:25N 36°07' W 005°22'0 0.0
2018-Jan-18 06:58N 36°07' W 005°22'0 0.0
2018-Jan-18 06:28N 36°07' W 005°22'0 0.1
2018-Jan-18 05:58N 36°07' W 005°22'0 0.0
2018-Jan-18 05:28N 36°07' W 005°22'0 0.1
2018-Jan-18 04:58N 36°07' W 005°22'0 0.1
2018-Jan-18 04:28N 36°07' W 005°22'0 0.1
2018-Jan-18 03:58N 36°07' W 005°22'0 0.1
2018-Jan-18 03:28N 36°07' W 005°22'0 0.1
2018-Jan-18 02:58N 36°07' W 005°22'0 0.1
2018-Jan-18 02:28N 36°07' W 005°22'0 0.1
2018-Jan-18 01:58N 36°07' W 005°22'0 0.4
2018-Jan-18 01:28N 36°07' W 005°22'0 0.4
2018-Jan-18 00:58N 36°07' W 005°22'0 0.2
2018-Jan-17 23:58N 36°07' W 005°22'0 0.2
2018-Jan-17 23:55N 36°07' W 005°22'  
Track history (hours):
 
Tides and Currents Weather Stations Pressure Air Temp Water Temp Dewpoint Dewpoint Depression Visibility Wind Speed Wind Dir Waves Ship Positions

Piera

Last reported at 2018-Jan-23 03:52 UTC. Time now 2018-Feb-25 22:16 UTC.
Position N 40°34' W 028°56'.
Warning: this ship's position is 33 days out of date.

Length 230 m; draft 7.4 m.

Type: Ship. MMSI: 229872000.

Date/timePositionNaut miles runAvg speedWind from/ knotsBaromVisibWave heightAir tempDewpointWater temp
2018-Jan-23 03:52N 40°34' W 028°56'21 9.0
2018-Jan-23 01:35N 40°29' W 028°30'23 9.5
2018-Jan-22 23:08N 40°23' W 028°01'  
2018-Jan-20 17:36N 37°53' W 016°17'110.9
2018-Jan-20 17:30N 37°52' W 016°16'3010.7
2018-Jan-20 14:44N 37°44' W 015°40'410.9
2018-Jan-20 14:20N 37°42' W 015°34'1210.7
2018-Jan-20 13:14N 37°39' W 015°20'910.8
2018-Jan-20 12:25N 37°37' W 015°09'510.8
2018-Jan-20 12:00N 37°36' W 015°04'611.1
2018-Jan-20 11:30N 37°35' W 014°57'611.0
2018-Jan-20 11:00N 37°33' W 014°50'710.9
2018-Jan-20 10:23N 37°31' W 014°42'411.0
2018-Jan-20 10:00N 37°30' W 014°37'611.0
2018-Jan-20 09:30N 37°29' W 014°30'610.9
2018-Jan-20 08:56N 37°27' W 014°23'510.7
2018-Jan-20 08:28N 37°26' W 014°17'510.5
2018-Jan-20 08:00N 37°24' W 014°11'510.7
2018-Jan-20 07:30N 37°23' W 014°04'510.7
2018-Jan-20 07:00N 37°22' W 013°58'510.5
2018-Jan-20 06:30N 37°21' W 013°51'610.7
2018-Jan-20 05:56N 37°19' W 013°44'510.8
2018-Jan-20 05:30N 37°18' W 013°38'510.6
2018-Jan-20 05:00N 37°16' W 013°32'610.8
2018-Jan-20 04:28N 37°15' W 013°25'510.5
2018-Jan-20 04:00N 37°13' W 013°19'510.6
2018-Jan-20 03:30N 37°12' W 013°13'510.8
2018-Jan-20 03:00N 37°10' W 013°06'510.7
2018-Jan-20 02:30N 37°09' W 012°60'510.6
2018-Jan-20 02:00N 37°08' W 012°53'510.5
2018-Jan-20 01:30N 37°06' W 012°47'510.8
2018-Jan-20 01:00N 37°05' W 012°41'510.8
2018-Jan-20 00:30N 37°03' W 012°34'510.6
2018-Jan-20 00:00N 37°02' W 012°28'510.2
2018-Jan-19 23:30N 37°01' W 012°21'510.3
2018-Jan-19 23:00N 36°59' W 012°15'510.2
2018-Jan-19 22:28N 36°58' W 012°09'610.2
2018-Jan-19 21:55N 36°56' W 012°02'510.3
2018-Jan-19 21:26N 36°55' W 011°56'510.2
2018-Jan-19 20:59N 36°54' W 011°50'610.2
2018-Jan-19 20:25N 36°52' W 011°43'410.2
2018-Jan-19 20:00N 36°51' W 011°38'510.2
2018-Jan-19 19:30N 36°50' W 011°32'510.2
2018-Jan-19 19:00N 36°49' W 011°26'510.4
2018-Jan-19 18:30N 36°48' W 011°20'510.1
2018-Jan-19 18:00N 36°47' W 011°13'510.1
2018-Jan-19 17:30N 36°46' W 011°07'99 9.6
2018-Jan-19 07:07N 36°18' W 009°08'210.0
2018-Jan-19 06:58N 36°18' W 009°06'2210.6
2018-Jan-19 04:51N 36°15' W 008°39'411.0
2018-Jan-19 04:27N 36°14' W 008°34'611.1
2018-Jan-19 03:55N 36°13' W 008°26'511.1
2018-Jan-19 03:27N 36°13' W 008°20'10211.7
2018-Jan-18 18:40N 35°58' W 006°15'311.4
2018-Jan-18 18:23N 35°58' W 006°11'810.9
2018-Jan-18 17:39N 35°58' W 006°01'311.1
2018-Jan-18 17:25N 35°58' W 005°58'511.2
2018-Jan-18 17:00N 35°57' W 005°52'611.4
2018-Jan-18 16:30N 35°57' W 005°45'611.9
2018-Jan-18 16:00N 35°57' W 005°38'611.5
2018-Jan-18 15:31N 35°59' W 005°31'510.4
2018-Jan-18 15:01N 36°02' W 005°25'510.3
2018-Jan-18 14:30N 36°06' W 005°23'1 1.8
2018-Jan-18 13:58N 36°07' W 005°22'0 0.1
2018-Jan-18 13:28N 36°07' W 005°22'0 0.0
2018-Jan-18 12:58N 36°07' W 005°22'0 0.1
2018-Jan-18 12:28N 36°07' W 005°22'0 0.2
2018-Jan-18 11:58N 36°07' W 005°22'0 0.0
2018-Jan-18 11:28N 36°07' W 005°22'0 0.2
2018-Jan-18 10:58N 36°07' W 005°22'0 0.0
2018-Jan-18 10:28N 36°07' W 005°22'0 0.1
2018-Jan-18 09:58N 36°07' W 005°22'0 0.1
2018-Jan-18 09:28N 36°07' W 005°22'0 0.0
2018-Jan-18 08:58N 36°07' W 005°22'0 0.0
2018-Jan-18 08:28N 36°07' W 005°22'0 0.0
2018-Jan-18 07:58N 36°07' W 005°22'0 0.1
2018-Jan-18 07:25N 36°07' W 005°22'0 0.0
2018-Jan-18 06:58N 36°07' W 005°22'0 0.0
2018-Jan-18 06:28N 36°07' W 005°22'0 0.1
2018-Jan-18 05:58N 36°07' W 005°22'0 0.0
2018-Jan-18 05:28N 36°07' W 005°22'0 0.1
2018-Jan-18 04:58N 36°07' W 005°22'0 0.1
2018-Jan-18 04:28N 36°07' W 005°22'0 0.1
2018-Jan-18 03:58N 36°07' W 005°22'0 0.1
2018-Jan-18 03:28N 36°07' W 005°22'0 0.1
2018-Jan-18 02:58N 36°07' W 005°22'0 0.1
2018-Jan-18 02:28N 36°07' W 005°22'0 0.1
2018-Jan-18 01:58N 36°07' W 005°22'0 0.4
2018-Jan-18 01:28N 36°07' W 005°22'0 0.4
2018-Jan-18 00:58N 36°07' W 005°22'0 0.2
2018-Jan-17 23:58N 36°07' W 005°22'0 0.2
2018-Jan-17 23:55N 36°07' W 005°22'  

Dump ship's entire track history